Time;durP1;ratioP1;P1;durP2;ratioP2;P2;SDS_P1;SDS_P2;PMS_P1;PMS_P2;Temp;Humidity;BMP_temperature;BMP_pressure;BME280_temperature;BME280_humidity;BME280_pressure;Samples;Min_cycle;Max_cycle;Signal;HPM_P1;HPM_P2
2023/08/02 00:02:05;;;;;;;2.17;1.97;;;19.60;78.80;;;;;;4897163;29;20483;-89
2023/08/02 00:04:33;;;;;;;2.10;1.90;;;19.40;79.60;;;;;;4895736;29;20497;-86
2023/08/02 00:07:02;;;;;;;1.97;1.87;;;19.20;80.40;;;;;;4896510;29;20474;-85
2023/08/02 00:09:31;;;;;;;3.13;2.00;;;18.90;81.10;;;;;;4894500;29;20601;-89
2023/08/02 00:12:00;;;;;;;4.27;2.43;;;18.80;81.70;;;;;;4896556;29;20471;-85
2023/08/02 00:14:29;;;;;;;1.93;1.83;;;18.70;81.90;;;;;;4892457;29;20474;-86
2023/08/02 00:16:57;;;;;;;1.60;1.50;;;18.80;81.60;;;;;;4893033;29;20529;-85
2023/08/02 00:19:25;;;;;;;2.80;1.83;;;18.90;81.30;;;;;;4896735;29;20485;-86
2023/08/02 00:21:53;;;;;;;2.50;2.00;;;18.90;81.10;;;;;;4892185;29;20486;-86
2023/08/02 00:24:22;;;;;;;2.13;1.93;;;18.70;81.30;;;;;;4896699;29;20486;-86
2023/08/02 00:26:50;;;;;;;2.27;2.07;;;18.50;82.30;;;;;;4889969;29;20463;-85
2023/08/02 00:29:20;;;;;;;2.93;2.00;;;18.30;82.90;;;;;;4894611;29;20470;-85
2023/08/02 00:31:48;;;;;;;2.33;2.13;;;18.10;83.40;;;;;;4878653;29;20458;-85
2023/08/02 00:34:16;;;;;;;4.90;2.00;;;18.10;83.60;;;;;;4879596;29;20879;-85
2023/08/02 00:36:45;;;;;;;2.57;2.37;;;18.10;83.60;;;;;;4874837;29;20478;-85
2023/08/02 00:39:13;;;;;;;1.60;1.50;;;18.20;83.10;;;;;;4888227;29;20477;-85
2023/08/02 00:41:42;;;;;;;5.07;2.27;;;18.20;82.90;;;;;;4878773;29;20571;-86
2023/08/02 00:44:10;;;;;;;2.03;1.83;;;18.20;82.90;;;;;;4875937;29;20499;-85
2023/08/02 00:46:39;;;;;;;1.50;1.40;;;18.20;82.90;;;;;;4896487;29;20958;-85
2023/08/02 00:49:10;;;;;;;2.40;2.20;;;18.30;82.90;;;;;;4893467;29;20489;-85
2023/08/02 00:51:38;;;;;;;2.30;1.70;;;18.50;81.90;;;;;;4871194;29;20950;-85
2023/08/02 00:54:07;;;;;;;2.40;1.80;;;18.70;81.20;;;;;;4867368;29;20466;-85
2023/08/02 00:56:35;;;;;;;1.67;1.57;;;18.80;80.50;;;;;;4879983;29;20557;-86
2023/08/02 00:59:03;;;;;;;2.20;1.70;;;18.70;80.20;;;;;;4879502;29;20526;-85
2023/08/02 01:01:32;;;;;;;2.20;2.03;;;18.60;80.20;;;;;;4895981;29;20474;-85
2023/08/02 01:04:01;;;;;;;2.13;1.80;;;18.60;80.50;;;;;;4893047;29;20950;-85
2023/08/02 01:06:35;;;;;;;2.50;2.00;;;18.40;80.50;;;;;;4891856;29;20462;-86
2023/08/02 01:09:08;;;;;;;2.70;2.23;;;18.30;80.70;;;;;;4879007;29;20486;-86
2023/08/02 01:11:42;;;;;;;2.00;1.87;;;18.20;81.20;;;;;;4895177;29;20950;-89
2023/08/02 01:14:17;;;;;;;4.07;2.10;;;18.00;81.90;;;;;;4894490;29;20465;-85
2023/08/02 01:16:46;;;;;;;2.43;2.13;;;18.10;82.00;;;;;;4896558;29;20474;-85
2023/08/02 01:19:21;;;;;;;2.17;1.97;;;18.20;81.70;;;;;;4888747;29;21188;-88
2023/08/02 01:21:51;;;;;;;2.43;2.20;;;18.20;81.50;;;;;;4872379;29;20569;-85
2023/08/02 01:24:20;;;;;;;2.80;2.60;;;18.30;81.30;;;;;;4876165;29;20470;-86
2023/08/02 01:26:49;;;;;;;2.00;1.90;;;18.30;81.10;;;;;;4893386;29;20486;-86
2023/08/02 01:29:20;;;;;;;4.53;2.60;;;18.40;81.10;;;;;;4895075;29;20466;-86
2023/08/02 01:31:49;;;;;;;1.80;1.70;;;18.60;80.70;;;;;;4885422;29;20878;-85
2023/08/02 01:34:19;;;;;;;2.60;1.83;;;18.60;80.50;;;;;;4896841;29;20473;-85
2023/08/02 01:36:47;;;;;;;2.20;2.00;;;18.80;80.30;;;;;;4881338;29;20470;-85
2023/08/02 01:39:25;;;;;;;2.80;1.60;;;18.90;79.70;;;;;;5085039;28;21079;-84
2023/08/02 01:41:53;;;;;;;2.00;1.57;;;19.10;79.20;;;;;;5071132;28;20529;-84
2023/08/02 01:44:22;;;;;;;3.20;2.30;;;19.20;78.70;;;;;;5073521;28;20498;-84
2023/08/02 01:46:50;;;;;;;3.10;1.73;;;19.20;77.90;;;;;;5059456;28;20513;-85
2023/08/02 01:49:21;;;;;;;2.00;1.90;;;19.00;78.30;;;;;;5081434;28;20476;-84
2023/08/02 01:51:50;;;;;;;3.03;2.23;;;19.00;78.40;;;;;;5063086;28;20459;-84
2023/08/02 01:54:18;;;;;;;2.97;2.00;;;18.80;78.60;;;;;;5064294;28;20890;-84
2023/08/02 01:56:47;;;;;;;2.27;1.90;;;18.80;78.80;;;;;;5067938;28;20504;-84
2023/08/02 01:59:16;;;;;;;2.70;1.93;;;18.70;79.20;;;;;;5067845;28;20475;-85
2023/08/02 02:01:44;;;;;;;2.90;2.00;;;18.90;79.20;;;;;;5064818;28;20450;-84
2023/08/02 02:04:12;;;;;;;3.70;2.10;;;19.00;78.70;;;;;;5072639;28;20464;-84
2023/08/02 02:06:40;;;;;;;2.93;2.20;;;19.00;78.50;;;;;;5065413;28;20485;-86
2023/08/02 02:09:09;;;;;;;3.33;2.07;;;19.00;78.50;;;;;;5061994;28;20546;-84
2023/08/02 02:11:37;;;;;;;2.50;1.87;;;18.90;78.40;;;;;;5066974;28;20465;-84
2023/08/02 02:14:07;;;;;;;2.40;2.13;;;18.80;78.90;;;;;;5057723;28;20482;-84
2023/08/02 02:16:35;;;;;;;3.13;2.60;;;18.90;79.20;;;;;;5063444;28;21039;-86
2023/08/02 02:19:03;;;;;;;2.50;1.90;;;19.00;78.80;;;;;;5071089;28;20968;-84
2023/08/02 02:21:31;;;;;;;3.10;2.20;;;19.10;78.30;;;;;;5063064;28;20483;-84
2023/08/02 02:23:59;;;;;;;2.83;2.57;;;19.20;77.80;;;;;;5070606;28;20515;-83
2023/08/02 02:26:28;;;;;;;2.60;2.40;;;19.00;77.80;;;;;;5066141;28;20460;-83
2023/08/02 02:28:56;;;;;;;2.27;2.07;;;18.70;78.50;;;;;;5067704;28;20961;-84
2023/08/02 02:31:25;;;;;;;3.13;2.07;;;18.50;79.50;;;;;;5063596;28;20450;-86
2023/08/02 02:33:54;;;;;;;2.90;2.60;;;18.40;79.80;;;;;;5058285;28;20547;-83
2023/08/02 02:36:22;;;;;;;2.93;2.63;;;18.40;79.90;;;;;;5065851;28;20458;-84
2023/08/02 02:38:53;;;;;;;2.73;2.53;;;18.40;80.20;;;;;;5062975;28;20501;-85
2023/08/02 02:41:21;;;;;;;2.77;2.23;;;18.50;79.90;;;;;;5065515;28;20461;-84
2023/08/02 02:43:49;;;;;;;4.33;2.00;;;18.60;79.90;;;;;;5063896;28;20458;-84
2023/08/02 02:46:17;;;;;;;3.40;2.70;;;18.70;79.70;;;;;;5066259;28;20458;-84
2023/08/02 02:48:47;;;;;;;2.20;1.97;;;18.70;79.40;;;;;;5062408;28;20465;-84
2023/08/02 02:51:15;;;;;;;1.90;1.80;;;18.80;79.30;;;;;;5047419;28;20467;-84
2023/08/02 02:53:43;;;;;;;2.87;2.57;;;18.80;79.40;;;;;;5048223;28;20466;-84
2023/08/02 02:56:12;;;;;;;2.43;2.03;;;19.00;78.60;;;;;;5044201;28;20455;-84
2023/08/02 02:58:40;;;;;;;3.70;2.87;;;19.00;78.30;;;;;;5053340;28;20479;-84
2023/08/02 03:01:08;;;;;;;2.60;2.13;;;18.90;78.30;;;;;;5060565;28;20528;-84
2023/08/02 03:03:37;;;;;;;3.67;2.23;;;18.80;78.70;;;;;;5054714;28;20459;-83
2023/08/02 03:06:06;;;;;;;4.03;2.50;;;18.70;79.10;;;;;;5049583;28;20477;-85
2023/08/02 03:08:35;;;;;;;3.07;2.23;;;18.70;79.40;;;;;;5051107;28;21099;-84
2023/08/02 03:11:03;;;;;;;2.77;2.00;;;18.70;79.40;;;;;;5045868;28;20468;-85
2023/08/02 03:13:31;;;;;;;3.00;2.70;;;18.80;79.10;;;;;;5049169;28;20475;-84
2023/08/02 03:15:59;;;;;;;4.10;2.63;;;18.80;79.10;;;;;;5052503;28;20508;-84
2023/08/02 03:18:27;;;;;;;4.13;2.93;;;18.90;78.90;;;;;;5050016;28;20467;-84
2023/08/02 03:20:56;;;;;;;3.07;2.33;;;18.90;78.90;;;;;;5048366;28;20467;-84
2023/08/02 03:23:25;;;;;;;2.50;2.30;;;19.00;78.70;;;;;;5052638;28;20464;-84
2023/08/02 03:25:53;;;;;;;3.40;2.70;;;19.00;78.50;;;;;;5052147;28;20897;-84
2023/08/02 03:28:22;;;;;;;3.10;2.30;;;19.00;78.30;;;;;;5048504;28;20888;-84
2023/08/02 03:30:50;;;;;;;2.83;2.30;;;19.00;78.70;;;;;;5052881;28;20480;-84
2023/08/02 03:33:18;;;;;;;6.00;2.77;;;19.00;78.20;;;;;;5049592;28;20524;-84
2023/08/02 03:35:46;;;;;;;2.50;2.30;;;18.90;78.70;;;;;;5049017;28;20866;-86
2023/08/02 03:38:14;;;;;;;2.60;2.40;;;18.90;78.80;;;;;;5044167;28;20548;-84
2023/08/02 03:40:44;;;;;;;3.00;2.00;;;18.90;79.00;;;;;;5050002;28;20463;-84
2023/08/02 03:43:13;;;;;;;3.67;2.60;;;18.80;79.10;;;;;;5051808;28;20509;-83
2023/08/02 03:45:41;;;;;;;3.10;2.23;;;18.90;78.90;;;;;;5049100;28;20521;-84
2023/08/02 03:48:09;;;;;;;6.87;2.37;;;19.00;78.90;;;;;;5050206;28;20462;-83
2023/08/02 03:50:37;;;;;;;3.23;2.93;;;19.00;78.40;;;;;;5046162;28;20467;-84
2023/08/02 03:53:06;;;;;;;2.43;1.90;;;19.00;78.20;;;;;;5049163;28;20478;-85
2023/08/02 03:55:34;;;;;;;2.80;2.60;;;18.90;78.40;;;;;;5049988;28;20504;-84
2023/08/02 03:58:03;;;;;;;2.60;2.40;;;18.80;77.90;;;;;;5050376;28;20517;-84
2023/08/02 04:00:32;;;;;;;5.97;2.37;;;18.70;78.60;;;;;;5050600;28;20479;-83
2023/08/02 04:03:00;;;;;;;3.00;2.80;;;18.70;78.70;;;;;;5044676;28;20514;-83
2023/08/02 04:05:29;;;;;;;3.60;2.63;;;18.80;78.50;;;;;;5048734;28;20465;-85
2023/08/02 04:07:57;;;;;;;2.97;2.70;;;18.70;78.80;;;;;;5044549;28;20475;-84
2023/08/02 04:10:25;;;;;;;4.57;3.13;;;18.80;78.90;;;;;;5043161;28;20455;-86
2023/08/02 04:12:53;;;;;;;3.63;2.10;;;18.80;79.00;;;;;;5052679;28;20472;-86
2023/08/02 04:15:23;;;;;;;3.37;3.00;;;18.90;79.00;;;;;;5051597;28;20459;-84
2023/08/02 04:17:51;;;;;;;3.33;2.50;;;19.00;78.90;;;;;;5037014;28;20787;-84
2023/08/02 04:20:19;;;;;;;2.70;1.97;;;19.00;78.80;;;;;;5047468;28;20463;-84
2023/08/02 04:22:49;;;;;;;4.07;2.73;;;19.20;78.60;;;;;;5046179;28;20459;-84
2023/08/02 04:25:18;;;;;;;3.70;2.93;;;19.30;77.80;;;;;;5042735;28;20455;-84
2023/08/02 04:27:46;;;;;;;3.40;2.90;;;19.10;78.00;;;;;;5063140;28;21393;-83
2023/08/02 04:30:14;;;;;;;3.70;3.33;;;18.80;78.80;;;;;;5050298;28;20516;-85
2023/08/02 04:32:44;;;;;;;4.70;4.30;;;18.60;79.60;;;;;;5048683;28;20463;-84
2023/08/02 04:35:12;;;;;;;5.10;3.63;;;18.50;80.00;;;;;;5047504;28;20538;-85
2023/08/02 04:37:41;;;;;;;8.43;3.57;;;18.40;80.40;;;;;;5049090;28;20494;-86
2023/08/02 04:40:10;;;;;;;3.57;3.23;;;18.30;80.60;;;;;;5053809;28;20471;-86
2023/08/02 04:42:39;;;;;;;4.20;3.60;;;18.20;81.20;;;;;;5041387;28;20475;-85
2023/08/02 04:45:08;;;;;;;6.00;3.40;;;18.10;81.50;;;;;;5046261;28;20456;-85
2023/08/02 04:47:37;;;;;;;3.80;3.00;;;18.20;81.80;;;;;;5048959;28;20467;-86
2023/08/02 04:50:07;;;;;;;3.30;3.00;;;18.30;81.80;;;;;;5047190;28;20495;-90
2023/08/02 04:52:35;;;;;;;3.43;3.03;;;18.40;81.60;;;;;;5057638;28;20512;-86
2023/08/02 04:55:07;;;;;;;3.07;2.87;;;18.60;80.90;;;;;;5049640;28;21343;-87
2023/08/02 04:57:37;;;;;;;3.30;3.00;;;18.80;80.00;;;;;;5047602;28;20456;-88
2023/08/02 05:00:08;;;;;;;3.43;3.00;;;19.00;79.50;;;;;;5046300;28;20599;-88
2023/08/02 05:02:37;;;;;;;4.97;4.33;;;19.20;79.00;;;;;;5043068;28;20455;-85
2023/08/02 05:05:07;;;;;;;4.20;2.93;;;19.30;78.80;;;;;;5038445;28;20452;-86
2023/08/02 05:07:38;;;;;;;2.93;2.73;;;19.40;78.50;;;;;;5051257;28;20473;-85
2023/08/02 05:10:09;;;;;;;3.27;2.50;;;19.50;78.20;;;;;;5044921;28;20538;-85
2023/08/02 05:12:40;;;;;;;2.60;2.33;;;19.70;78.10;;;;;;5046494;28;20495;-86
2023/08/02 05:15:08;;;;;;;4.93;2.80;;;19.90;77.30;;;;;;5042235;28;20457;-85
2023/08/02 05:17:37;;;;;;;3.30;3.10;;;19.90;76.60;;;;;;5049355;28;20458;-85
2023/08/02 05:20:08;;;;;;;3.67;3.13;;;20.00;76.70;;;;;;5049827;28;20463;-86
2023/08/02 05:22:36;;;;;;;3.03;2.80;;;19.90;76.80;;;;;;5054982;28;20454;-85
2023/08/02 05:25:05;;;;;;;3.13;2.83;;;19.90;76.80;;;;;;5048535;28;21513;-86
2023/08/02 05:27:33;;;;;;;2.80;2.57;;;19.80;77.20;;;;;;5044969;28;20491;-85
2023/08/02 05:30:02;;;;;;;2.90;2.70;;;19.80;77.40;;;;;;5053991;28;20486;-86
2023/08/02 05:32:30;;;;;;;3.07;2.67;;;19.80;77.70;;;;;;5042759;28;20544;-86
2023/08/02 05:34:59;;;;;;;4.53;3.77;;;19.80;77.50;;;;;;5043794;28;20518;-85
2023/08/02 05:37:30;;;;;;;3.73;2.70;;;19.90;77.50;;;;;;5040593;28;20496;-85
2023/08/02 05:39:58;;;;;;;3.43;3.13;;;19.90;77.30;;;;;;5044271;28;20511;-88
2023/08/02 05:42:27;;;;;;;3.47;3.17;;;19.90;77.50;;;;;;5044553;28;20468;-86
2023/08/02 05:44:55;;;;;;;3.13;2.83;;;19.80;77.50;;;;;;5047717;28;20467;-87
2023/08/02 05:47:26;;;;;;;3.63;2.43;;;19.80;77.80;;;;;;5040817;28;20459;-86
2023/08/02 05:49:54;;;;;;;4.93;3.07;;;19.80;77.70;;;;;;5044665;28;20471;-87
2023/08/02 05:52:22;;;;;;;3.40;3.10;;;19.80;78.10;;;;;;5046079;28;20463;-85
2023/08/02 05:54:52;;;;;;;4.40;2.83;;;19.80;78.20;;;;;;5047509;28;20459;-86
2023/08/02 05:57:20;;;;;;;3.23;2.90;;;19.80;78.50;;;;;;5051003;28;20982;-85
2023/08/02 05:59:49;;;;;;;4.53;3.50;;;19.80;78.50;;;;;;5042381;28;20525;-86
2023/08/02 06:02:18;;;;;;;7.80;3.80;;;19.80;78.40;;;;;;5041939;28;20456;-86
2023/08/02 06:04:48;;;;;;;4.33;3.20;;;19.80;78.20;;;;;;5047212;28;20464;-85
2023/08/02 06:07:16;;;;;;;6.03;4.13;;;19.70;78.00;;;;;;5040325;28;20600;-85
2023/08/02 06:09:44;;;;;;;3.03;2.77;;;19.50;78.30;;;;;;5040712;28;20530;-86
2023/08/02 06:12:14;;;;;;;3.77;3.47;;;19.40;79.20;;;;;;5052956;28;20573;-87
2023/08/02 06:14:42;;;;;;;6.07;4.70;;;19.40;79.40;;;;;;5041013;28;20475;-85
2023/08/02 06:17:11;;;;;;;5.37;4.50;;;19.20;79.90;;;;;;5045165;28;20470;-85
2023/08/02 06:19:39;;;;;;;4.13;3.73;;;19.10;80.20;;;;;;5043193;28;20938;-86
2023/08/02 06:22:07;;;;;;;5.67;4.30;;;19.10;80.50;;;;;;5067104;28;20458;-88
2023/08/02 06:24:36;;;;;;;5.87;4.00;;;19.00;81.60;;;;;;5044925;28;20471;-86
2023/08/02 06:27:04;;;;;;;5.40;4.90;;;19.00;81.60;;;;;;5062711;28;20455;-85
2023/08/02 06:29:34;;;;;;;7.37;4.50;;;18.90;82.10;;;;;;5043298;28;20468;-87
2023/08/02 06:32:02;;;;;;;10.13;4.20;;;19.00;82.40;;;;;;5045090;28;20463;-86
2023/08/02 06:34:31;;;;;;;7.27;4.10;;;19.30;82.40;;;;;;5051498;28;20459;-86
2023/08/02 06:37:00;;;;;;;12.60;5.10;;;19.60;81.10;;;;;;5061444;28;20464;-87
2023/08/02 06:39:29;;;;;;;4.83;4.13;;;19.90;80.60;;;;;;5046970;28;20482;-86
2023/08/02 06:41:57;;;;;;;5.90;4.37;;;20.00;79.70;;;;;;5055362;28;20483;-86
2023/08/02 06:44:26;;;;;;;6.50;4.50;;;20.20;79.80;;;;;;5051995;28;20533;-87
2023/08/02 06:46:56;;;;;;;6.80;4.13;;;20.30;78.40;;;;;;5048586;28;20544;-88
2023/08/02 06:49:24;;;;;;;5.40;4.13;;;20.20;79.10;;;;;;5057180;28;21308;-86
2023/08/02 06:51:53;;;;;;;4.63;3.57;;;20.20;79.20;;;;;;5054205;28;20501;-86
2023/08/02 06:54:21;;;;;;;3.73;3.30;;;20.20;79.30;;;;;;5052476;28;20448;-89
2023/08/02 06:56:49;;;;;;;4.47;4.03;;;20.30;79.60;;;;;;5056187;28;20626;-87
2023/08/02 06:59:17;;;;;;;7.20;4.73;;;20.40;79.20;;;;;;5055926;28;20471;-86
2023/08/02 07:01:47;;;;;;;4.90;3.63;;;20.40;78.80;;;;;;5052225;28;20476;-87
2023/08/02 07:04:16;;;;;;;3.77;3.20;;;20.40;79.40;;;;;;5058233;28;20481;-90
2023/08/02 07:06:45;;;;;;;5.63;4.60;;;20.50;79.20;;;;;;5054996;28;20502;-88
2023/08/02 07:09:14;;;;;;;4.20;3.80;;;20.60;78.80;;;;;;5050724;28;20453;-86
2023/08/02 07:11:42;;;;;;;4.70;3.63;;;20.70;78.70;;;;;;5051714;28;20563;-89
2023/08/02 07:14:11;;;;;;;4.03;3.73;;;20.70;78.90;;;;;;5042813;28;20510;-88
2023/08/02 07:16:39;;;;;;;5.23;3.67;;;20.80;78.70;;;;;;5048248;28;20809;-87
2023/08/02 07:19:07;;;;;;;4.13;3.73;;;20.90;78.50;;;;;;5048819;28;20446;-86
2023/08/02 07:21:39;;;;;;;3.40;3.10;;;21.00;78.20;;;;;;5048648;28;20486;-86
2023/08/02 07:24:09;;;;;;;3.43;3.13;;;21.10;77.60;;;;;;5046737;28;20464;-83
2023/08/02 07:26:37;;;;;;;4.77;3.63;;;21.40;76.60;;;;;;5047067;28;20460;-85
2023/08/02 07:29:05;;;;;;;6.30;3.03;;;21.60;76.00;;;;;;5049645;28;20985;-87
2023/08/02 07:31:33;;;;;;;5.00;3.30;;;21.90;75.30;;;;;;5050732;28;20461;-85
2023/08/02 07:34:03;;;;;;;4.30;3.50;;;22.10;74.70;;;;;;5046568;28;20456;-84
2023/08/02 07:36:31;;;;;;;3.77;2.40;;;22.30;74.20;;;;;;5051044;28;20462;-82
2023/08/02 07:39:01;;;;;;;3.20;2.77;;;22.50;73.70;;;;;;5047492;28;20526;-85
2023/08/02 07:41:29;;;;;;;4.83;2.33;;;22.60;73.30;;;;;;5050345;28;20487;-84
2023/08/02 07:43:57;;;;;;;3.60;3.10;;;22.70;73.00;;;;;;5050115;28;20800;-85
2023/08/02 07:46:26;;;;;;;2.63;2.37;;;22.80;72.80;;;;;;5041628;28;20462;-85
2023/08/02 07:48:55;;;;;;;4.57;3.50;;;22.90;72.50;;;;;;5047552;28;20467;-83
2023/08/02 07:51:23;;;;;;;3.63;2.53;;;23.00;72.30;;;;;;5047980;28;20451;-83
2023/08/02 07:53:51;;;;;;;4.10;3.50;;;23.10;72.10;;;;;;5047816;28;20451;-86
2023/08/02 07:56:21;;;;;;;4.23;3.00;;;23.10;71.80;;;;;;5047941;28;20467;-87
2023/08/02 07:58:49;;;;;;;4.90;3.00;;;23.20;71.80;;;;;;5041302;28;20471;-82
2023/08/02 08:01:18;;;;;;;2.90;2.70;;;23.30;71.50;;;;;;5044238;28;20475;-83
2023/08/02 08:03:46;;;;;;;3.73;3.37;;;23.30;71.40;;;;;;5046715;28;21024;-84
2023/08/02 08:06:16;;;;;;;3.10;2.50;;;23.40;71.30;;;;;;5050315;28;20467;-83
2023/08/02 08:08:44;;;;;;;2.60;2.30;;;23.40;71.20;;;;;;5044076;28;20456;-86
2023/08/02 08:11:13;;;;;;;3.70;3.03;;;23.50;71.20;;;;;;5044311;28;20501;-86
2023/08/02 08:13:43;;;;;;;2.90;2.70;;;23.50;71.10;;;;;;5045459;28;20457;-87
2023/08/02 08:16:12;;;;;;;3.27;3.00;;;23.50;71.00;;;;;;5042595;28;20458;-85
2023/08/02 08:18:41;;;;;;;3.30;3.00;;;23.60;71.00;;;;;;5049084;28;20935;-85
2023/08/02 08:21:10;;;;;;;2.93;2.57;;;23.60;71.00;;;;;;5041540;28;20503;-83
2023/08/02 08:23:38;;;;;;;3.33;3.03;;;23.60;70.90;;;;;;5044388;28;20485;-84
2023/08/02 08:26:06;;;;;;;3.40;2.40;;;23.70;70.90;;;;;;5040145;28;20472;-83
2023/08/02 08:28:34;;;;;;;2.87;2.40;;;23.70;70.70;;;;;;5046539;28;20524;-84
2023/08/02 08:31:05;;;;;;;3.57;3.27;;;23.70;70.80;;;;;;5041791;28;20498;-86
2023/08/02 08:33:33;;;;;;;4.90;3.20;;;23.80;70.70;;;;;;5055090;28;20489;-87
2023/08/02 08:36:01;;;;;;;2.80;2.60;;;23.80;70.60;;;;;;5041083;28;20853;-82
2023/08/02 08:38:30;;;;;;;3.00;2.80;;;23.80;70.40;;;;;;5050620;28;21016;-85
2023/08/02 08:40:59;;;;;;;3.67;2.80;;;23.80;70.40;;;;;;5045210;28;20455;-84
2023/08/02 08:43:28;;;;;;;4.70;3.30;;;23.90;70.20;;;;;;5046222;28;20461;-85
2023/08/02 08:45:57;;;;;;;3.13;2.83;;;23.90;70.10;;;;;;5049436;28;20930;-86
2023/08/02 08:48:28;;;;;;;3.27;2.63;;;23.90;70.10;;;;;;5041947;28;20882;-82
2023/08/02 08:50:57;;;;;;;2.70;2.50;;;23.90;70.00;;;;;;5045155;28;20479;-87
2023/08/02 08:53:33;;;;;;;3.00;2.27;;;23.90;69.90;;;;;;5047318;28;20491;-87
2023/08/02 08:56:02;;;;;;;2.40;2.17;;;24.00;69.90;;;;;;5039470;28;20462;-84
2023/08/02 08:58:32;;;;;;;3.47;2.33;;;24.00;69.80;;;;;;5044533;28;20443;-85
2023/08/02 09:01:03;;;;;;;3.37;2.63;;;24.00;69.70;;;;;;5047613;28;20466;-84
2023/08/02 09:03:33;;;;;;;3.57;2.70;;;24.00;69.60;;;;;;5039566;28;20454;-83
2023/08/02 09:06:03;;;;;;;6.70;3.13;;;24.10;69.60;;;;;;5045571;28;20482;-82
2023/08/02 09:08:42;;;;;;;3.73;2.23;;;24.10;69.80;;;;;;5043961;28;20552;-85
2023/08/02 09:11:10;;;;;;;7.33;2.80;;;24.10;69.50;;;;;;5050862;28;20467;-86
2023/08/02 09:13:38;;;;;;;2.90;2.63;;;24.10;69.30;;;;;;5049553;28;20440;-90
2023/08/02 09:16:09;;;;;;;5.13;2.87;;;24.10;69.30;;;;;;5044535;28;20861;-87
2023/08/02 09:18:41;;;;;;;2.07;1.90;;;24.10;69.40;;;;;;5048520;28;20462;-87
2023/08/02 09:21:12;;;;;;;2.20;2.07;;;24.10;69.30;;;;;;5044378;28;20467;-88
2023/08/02 09:23:40;;;;;;;3.03;2.40;;;24.10;69.30;;;;;;5049316;28;20457;-83
2023/08/02 09:26:14;;;;;;;5.43;2.60;;;24.10;69.40;;;;;;5045684;28;21043;-89
2023/08/02 09:28:57;;;;;;;4.40;2.50;;;24.10;69.50;;;;;;5044241;28;20442;-82
2023/08/02 09:31:26;;;;;;;2.80;2.60;;;24.10;69.50;;;;;;5061001;28;20531;-84
2023/08/02 09:33:56;;;;;;;2.77;2.13;;;24.20;69.40;;;;;;5044213;28;20455;-83
2023/08/02 09:36:26;;;;;;;2.73;2.40;;;24.20;69.40;;;;;;5039746;28;20441;-84
2023/08/02 09:38:56;;;;;;;3.27;2.20;;;24.20;69.30;;;;;;5050247;28;20485;-82
2023/08/02 09:41:25;;;;;;;2.27;2.07;;;24.20;69.20;;;;;;5051083;28;20458;-83
2023/08/02 09:43:57;;;;;;;2.87;2.57;;;24.20;69.30;;;;;;5044746;28;20628;-85
2023/08/02 09:46:28;;;;;;;2.60;2.27;;;24.20;69.20;;;;;;5045359;28;20463;-86
2023/08/02 09:48:59;;;;;;;3.40;2.33;;;24.30;69.20;;;;;;5046865;28;21401;-86
2023/08/02 09:51:40;;;;;;;3.20;2.23;;;24.30;68.90;;;;;;5041932;28;20512;-87
2023/08/02 09:54:10;;;;;;;2.00;1.80;;;24.30;69.00;;;;;;5043278;28;21006;-85
2023/08/02 09:56:41;;;;;;;2.70;2.23;;;24.40;68.80;;;;;;5049986;28;20502;-87
2023/08/02 09:59:10;;;;;;;3.57;2.30;;;24.40;68.90;;;;;;5053903;28;20462;-85
2023/08/02 10:01:39;;;;;;;2.10;1.83;;;24.40;68.80;;;;;;5061195;28;20980;-85
2023/08/02 10:04:11;;;;;;;2.83;2.40;;;24.40;68.90;;;;;;5056459;28;20541;-89
2023/08/02 10:06:43;;;;;;;2.50;2.30;;;24.40;68.70;;;;;;5051235;28;20456;-86
2023/08/02 10:09:15;;;;;;;5.70;2.20;;;24.40;69.00;;;;;;5051827;28;20467;-88
2023/08/02 10:11:48;;;;;;;6.53;2.50;;;24.40;68.90;;;;;;5052407;28;20462;-90
2023/08/02 10:14:17;;;;;;;2.90;2.30;;;24.40;68.80;;;;;;5047589;28;20475;-87
2023/08/02 10:16:48;;;;;;;5.20;2.17;;;24.40;68.90;;;;;;5045318;28;20539;-88
2023/08/02 10:19:18;;;;;;;3.17;2.83;;;24.40;68.90;;;;;;5048745;28;20808;-86
2023/08/02 10:21:50;;;;;;;3.03;1.73;;;24.40;69.10;;;;;;5048925;28;20450;-86
2023/08/02 10:24:19;;;;;;;3.43;2.20;;;24.40;68.90;;;;;;5048528;28;20858;-86
2023/08/02 10:26:48;;;;;;;4.83;2.60;;;24.40;68.90;;;;;;5049154;28;20466;-89
2023/08/02 10:29:16;;;;;;;2.17;2.03;;;24.40;68.80;;;;;;5046875;28;20494;-85
2023/08/02 10:31:45;;;;;;;3.17;2.13;;;24.40;68.80;;;;;;5049877;28;20447;-84
2023/08/02 10:34:47;;;;;;;2.70;1.97;;;24.40;68.90;;;;;;5048390;28;20459;-84
2023/08/02 10:37:15;;;;;;;4.97;2.20;;;24.40;68.90;;;;;;5049512;28;20454;-87
2023/08/02 10:39:56;;;;;;;2.40;2.00;;;24.40;68.80;;;;;;5045478;28;20464;-85
2023/08/02 10:42:29;;;;;;;3.23;2.23;;;24.50;68.80;;;;;;5048862;28;20470;-87
2023/08/02 10:45:18;;;;;;;2.50;2.17;;;24.50;68.80;;;;;;5054909;28;20464;-90
2023/08/02 10:47:46;;;;;;;2.60;1.97;;;24.50;68.40;;;;;;5051595;28;20451;-86
2023/08/02 10:50:45;;;;;;;2.30;1.90;;;24.50;68.60;;;;;;5043844;28;21474;-85
2023/08/02 10:53:14;;;;;;;5.43;2.33;;;24.50;68.50;;;;;;5040807;28;20889;-85
2023/08/02 10:56:06;;;;;;;2.63;2.43;;;24.50;68.30;;;;;;5045187;28;20467;-85
2023/08/02 10:58:48;;;;;;;2.17;2.00;;;24.60;68.40;;;;;;5053953;28;20439;-85
2023/08/02 11:01:17;;;;;;;2.40;2.13;;;24.60;68.30;;;;;;5047161;28;20478;-85
2023/08/02 11:03:45;;;;;;;6.50;2.27;;;24.60;68.30;;;;;;5054251;28;20593;-86
2023/08/02 11:06:29;;;;;;;4.20;2.27;;;24.60;68.30;;;;;;5041337;28;20453;-85
2023/08/02 11:09:02;;;;;;;4.80;1.97;;;24.70;68.40;;;;;;5049348;28;20660;-85
2023/08/02 11:11:36;;;;;;;3.70;2.03;;;24.70;68.30;;;;;;5046364;28;20815;-85
2023/08/02 11:14:05;;;;;;;2.67;2.20;;;24.70;68.30;;;;;;5048199;28;21020;-85
2023/08/02 11:16:40;;;;;;;1.70;1.60;;;24.80;68.00;;;;;;5046952;28;20514;-84
2023/08/02 11:19:22;;;;;;;2.20;2.00;;;24.80;68.10;;;;;;5048502;28;20447;-84
2023/08/02 11:21:56;;;;;;;2.00;1.90;;;24.90;68.20;;;;;;5047301;28;20519;-86
2023/08/02 11:24:24;;;;;;;3.43;1.60;;;24.90;68.30;;;;;;5048335;28;20487;-84
2023/08/02 11:26:59;;;;;;;2.87;2.20;;;25.00;68.30;;;;;;5047800;28;20464;-85
2023/08/02 11:29:28;;;;;;;2.20;2.00;;;25.00;68.20;;;;;;5049073;28;20549;-85
2023/08/02 11:32:01;;;;;;;2.00;1.80;;;25.00;68.00;;;;;;5044312;28;20959;-85
2023/08/02 11:34:36;;;;;;;4.13;2.20;;;25.00;68.10;;;;;;5042394;28;20459;-82
2023/08/02 11:37:09;;;;;;;1.80;1.70;;;25.10;68.20;;;;;;5042898;28;20555;-83
2023/08/02 11:39:38;;;;;;;2.30;2.20;;;25.20;67.90;;;;;;5047606;28;20492;-84
2023/08/02 11:42:07;;;;;;;3.17;1.90;;;25.20;68.00;;;;;;5048429;28;20460;-84
2023/08/02 11:44:36;;;;;;;2.30;1.70;;;25.30;68.00;;;;;;5044047;28;20663;-84
2023/08/02 11:47:06;;;;;;;2.20;2.00;;;25.30;68.00;;;;;;5045542;28;20535;-83
2023/08/02 11:49:49;;;;;;;2.50;1.47;;;25.40;67.80;;;;;;5047972;28;20873;-84
2023/08/02 11:52:26;;;;;;;3.43;1.73;;;25.40;67.20;;;;;;5044573;28;20972;-86
2023/08/02 11:54:55;;;;;;;2.77;2.40;;;25.50;67.00;;;;;;5049219;28;20449;-84
2023/08/02 11:57:25;;;;;;;2.37;1.80;;;25.60;66.90;;;;;;5048504;28;20516;-83
2023/08/02 11:59:56;;;;;;;2.23;1.43;;;25.70;66.80;;;;;;5047870;28;20482;-88
2023/08/02 12:02:25;;;;;;;2.33;1.63;;;25.90;66.40;;;;;;5046379;28;20543;-83
2023/08/02 12:04:54;;;;;;;3.10;2.30;;;26.10;66.00;;;;;;5045754;28;20528;-84
2023/08/02 12:07:29;;;;;;;3.10;1.90;;;26.20;65.60;;;;;;5045642;28;20877;-83
2023/08/02 12:09:58;;;;;;;3.03;2.13;;;26.30;65.20;;;;;;5048821;28;21027;-83
2023/08/02 12:12:29;;;;;;;2.40;2.20;;;26.40;65.00;;;;;;5048061;28;20461;-87
2023/08/02 12:14:58;;;;;;;3.20;1.97;;;26.50;64.90;;;;;;5046696;28;20821;-87
2023/08/02 12:17:26;;;;;;;2.00;1.80;;;26.60;64.70;;;;;;5044880;28;20463;-84
2023/08/02 12:19:54;;;;;;;1.60;1.50;;;26.60;64.50;;;;;;5045510;28;20460;-85
2023/08/02 12:22:23;;;;;;;2.70;1.50;;;26.60;64.60;;;;;;5039300;28;20521;-84
2023/08/02 12:25:09;;;;;;;1.70;1.60;;;26.70;64.50;;;;;;5047560;28;20470;-84
2023/08/02 12:27:37;;;;;;;1.77;1.67;;;26.80;64.50;;;;;;5042347;28;20816;-84
2023/08/02 12:30:10;;;;;;;2.23;2.03;;;26.90;64.10;;;;;;5047283;28;20521;-87
2023/08/02 12:32:38;;;;;;;2.30;1.83;;;27.00;64.00;;;;;;5047265;28;20535;-89
2023/08/02 12:35:08;;;;;;;1.80;1.43;;;27.00;63.90;;;;;;5052949;28;20448;-84
2023/08/02 12:37:39;;;;;;;1.90;1.70;;;27.00;63.80;;;;;;5043433;28;20491;-87
2023/08/02 12:40:10;;;;;;;2.60;1.93;;;27.00;64.20;;;;;;5047100;28;20449;-84
2023/08/02 12:42:38;;;;;;;3.27;1.50;;;27.00;64.30;;;;;;5043668;28;20530;-85
2023/08/02 12:45:16;;;;;;;2.57;1.87;;;27.00;64.40;;;;;;5045636;28;21052;-84
2023/08/02 12:47:45;;;;;;;2.17;1.90;;;27.10;64.20;;;;;;5049050;28;20991;-88
2023/08/02 12:50:14;;;;;;;1.77;1.67;;;27.10;63.90;;;;;;5042355;28;20454;-84
2023/08/02 12:52:42;;;;;;;1.97;1.87;;;27.10;64.00;;;;;;5045687;28;20462;-85
2023/08/02 12:55:12;;;;;;;1.90;1.80;;;27.10;63.80;;;;;;5047999;28;20466;-87
2023/08/02 12:57:40;;;;;;;1.53;1.43;;;27.10;63.70;;;;;;5043959;28;20455;-87
2023/08/02 13:00:11;;;;;;;2.80;2.60;;;27.10;63.60;;;;;;5052268;28;20475;-90
2023/08/02 13:02:39;;;;;;;4.97;2.53;;;27.00;63.80;;;;;;5040797;28;20457;-86